createdAt,value
2018-12-13T00:00:44.565Z,5.33
2018-12-13T00:03:13.184Z,5.80
2018-12-13T00:05:42.356Z,5.57
2018-12-13T00:08:10.566Z,5.73
2018-12-13T00:10:38.858Z,5.63
2018-12-13T00:13:07.145Z,5.30
2018-12-13T00:15:35.424Z,6.10
2018-12-13T00:18:03.730Z,5.50
2018-12-13T00:20:33.252Z,5.70
2018-12-13T00:23:01.465Z,5.43
2018-12-13T00:25:29.799Z,5.97
2018-12-13T00:27:58.015Z,6.00
2018-12-13T00:30:26.328Z,6.00
2018-12-13T00:32:54.509Z,5.87
2018-12-13T00:35:22.710Z,6.37
2018-12-13T00:37:50.992Z,6.20
2018-12-13T00:40:19.195Z,6.13
2018-12-13T00:42:49.345Z,5.93
2018-12-13T00:45:17.541Z,6.27
2018-12-13T00:47:45.750Z,6.07
2018-12-13T00:50:14.027Z,6.43
2018-12-13T00:52:42.303Z,6.40
2018-12-13T00:55:10.514Z,6.37
2018-12-13T00:57:39.093Z,6.03
2018-12-13T01:00:07.478Z,5.83
2018-12-13T01:02:35.758Z,6.47
2018-12-13T01:05:04.327Z,6.10
2018-12-13T01:07:32.549Z,5.90
2018-12-13T01:10:00.807Z,6.57
2018-12-13T01:12:29.867Z,6.20
2018-12-13T01:15:01.042Z,6.20
2018-12-13T01:17:30.213Z,5.80
2018-12-13T01:19:58.393Z,4.90
2018-12-13T01:22:26.560Z,5.40
2018-12-13T01:24:54.747Z,4.10
2018-12-13T01:27:22.957Z,4.47
2018-12-13T01:29:51.155Z,4.87
2018-12-13T01:32:19.473Z,4.17
2018-12-13T01:34:47.674Z,4.37
2018-12-13T01:37:15.948Z,3.87
2018-12-13T01:39:44.144Z,3.43
2018-12-13T01:42:13.152Z,3.33
2018-12-13T01:44:42.673Z,3.03
2018-12-13T01:47:11.109Z,3.40
2018-12-13T01:49:39.510Z,3.50
2018-12-13T01:52:07.965Z,2.60
2018-12-13T01:54:36.473Z,3.00
2018-12-13T01:57:07.491Z,2.70
2018-12-13T01:59:35.696Z,2.70
2018-12-13T02:02:03.975Z,2.70
2018-12-13T02:04:32.205Z,3.17
2018-12-13T02:07:00.385Z,2.47
2018-12-13T02:09:28.596Z,3.03
2018-12-13T02:11:56.821Z,2.70
2018-12-13T02:14:25.032Z,3.03
2018-12-13T02:16:53.388Z,2.80
2018-12-13T02:19:21.688Z,3.10
2018-12-13T02:21:49.872Z,3.10
2018-12-13T02:24:18.311Z,2.83
2018-12-13T02:26:46.555Z,3.03
2018-12-13T02:29:14.836Z,3.33
2018-12-13T02:31:45.156Z,3.10
2018-12-13T02:34:13.971Z,3.30
2018-12-13T02:36:42.191Z,3.47
2018-12-13T02:39:10.397Z,3.10
2018-12-13T02:41:39.054Z,3.80
2018-12-13T02:44:07.361Z,3.43
2018-12-13T02:46:35.633Z,3.90
2018-12-13T02:49:07.895Z,3.57
2018-12-13T02:51:36.267Z,3.90
2018-12-13T02:54:06.471Z,4.00
2018-12-13T02:56:35.654Z,4.13
2018-12-13T02:59:04.561Z,3.57
2018-12-13T03:01:32.746Z,4.00
2018-12-13T03:04:01.280Z,3.80
2018-12-13T03:06:29.577Z,3.80
2018-12-13T03:08:57.864Z,3.93
2018-12-13T03:11:26.770Z,4.13
2018-12-13T03:13:55.442Z,4.30
2018-12-13T03:16:23.971Z,4.90
2018-12-13T03:18:52.200Z,4.40
2018-12-13T03:21:23.466Z,5.17
2018-12-13T03:23:51.843Z,5.37
2018-12-13T03:26:21.213Z,5.07
2018-12-13T03:28:49.415Z,5.47
2018-12-13T03:31:17.651Z,5.27
2018-12-13T03:33:45.990Z,5.33
2018-12-13T03:36:14.532Z,4.83
2018-12-13T03:38:43.055Z,5.57
2018-12-13T03:41:11.569Z,5.87
2018-12-13T03:43:39.889Z,6.07
2018-12-13T03:46:08.429Z,6.00
2018-12-13T03:48:36.911Z,6.50
2018-12-13T03:51:08.598Z,6.77
2018-12-13T03:53:37.130Z,6.43
2018-12-13T03:56:05.409Z,6.73
2018-12-13T03:58:33.617Z,6.20
2018-12-13T04:01:01.803Z,6.67
2018-12-13T04:03:29.994Z,6.57
2018-12-13T04:06:03.989Z,6.47
2018-12-13T04:08:35.046Z,6.20
2018-12-13T04:11:04.590Z,5.80
2018-12-13T04:13:33.531Z,6.47
2018-12-13T04:16:02.267Z,6.50
2018-12-13T04:18:30.482Z,6.17
2018-12-13T04:20:58.761Z,6.20
2018-12-13T04:23:27.004Z,6.33
2018-12-13T04:25:56.125Z,6.47
2018-12-13T04:28:24.387Z,6.07
2018-12-13T04:30:52.661Z,7.00
2018-12-13T04:33:20.898Z,6.67
2018-12-13T04:35:49.446Z,6.20
2018-12-13T04:38:17.732Z,6.70
2018-12-13T04:40:47.836Z,6.50
2018-12-13T04:43:16.147Z,6.70
2018-12-13T04:45:44.477Z,7.03
2018-12-13T04:48:12.725Z,6.50
2018-12-13T04:50:41.020Z,6.97
2018-12-13T04:53:09.243Z,6.80
2018-12-13T04:55:37.445Z,7.37
2018-12-13T04:58:05.669Z,7.57
2018-12-13T05:00:33.860Z,7.60
2018-12-13T05:03:02.040Z,6.93
2018-12-13T05:05:30.233Z,7.30
2018-12-13T05:07:58.429Z,7.27
2018-12-13T05:10:37.967Z,7.30
2018-12-13T05:13:06.172Z,7.83
2018-12-13T05:15:55.356Z,7.50
2018-12-13T05:18:23.602Z,7.77
2018-12-13T05:20:51.891Z,7.47
2018-12-13T05:23:20.521Z,7.93
2018-12-13T05:25:49.998Z,6.73
2018-12-13T05:28:18.371Z,7.27
2018-12-13T05:30:48.456Z,7.27
2018-12-13T05:33:16.620Z,7.47
2018-12-13T05:35:45.022Z,7.03
2018-12-13T05:38:13.769Z,6.80
2018-12-13T05:40:42.014Z,8.13
2018-12-13T05:43:11.413Z,7.40
2018-12-13T05:45:39.852Z,7.50
2018-12-13T05:48:08.025Z,6.80
2018-12-13T05:50:59.573Z,7.03
2018-12-13T05:53:27.756Z,6.77
2018-12-13T05:55:56.012Z,6.80
2018-12-13T05:58:24.266Z,6.93
2018-12-13T06:00:52.577Z,6.60
2018-12-13T06:03:20.748Z,6.80
2018-12-13T06:08:51.870Z,6.83
2018-12-13T06:11:22.571Z,6.43
2018-12-13T06:13:51.622Z,7.23
2018-12-13T06:19:00.219Z,6.70
2018-12-13T06:21:29.953Z,6.83
2018-12-13T06:24:00.742Z,6.83
2018-12-13T06:26:29.639Z,6.93
2018-12-13T06:28:59.793Z,7.10
2018-12-13T06:31:28.020Z,6.77
2018-12-13T06:33:56.221Z,6.40
2018-12-13T06:36:24.652Z,7.30
2018-12-13T06:38:53.049Z,6.47
2018-12-13T06:41:34.470Z,6.43
2018-12-13T06:44:02.809Z,6.57
2018-12-13T06:46:30.988Z,6.67
2018-12-13T06:49:00.779Z,6.40
2018-12-13T06:51:28.994Z,8.83
2018-12-13T06:53:57.183Z,7.17
2018-12-13T06:56:25.380Z,7.20
2018-12-13T06:58:53.651Z,6.50
2018-12-13T07:01:21.823Z,6.57
2018-12-13T07:03:50.004Z,6.73
2018-12-13T07:06:18.257Z,6.37
2018-12-13T07:08:49.000Z,6.90
2018-12-13T07:11:17.248Z,7.23
2018-12-13T07:13:45.429Z,7.53
2018-12-13T07:16:13.597Z,7.80
2018-12-13T07:18:41.838Z,7.83
2018-12-13T07:21:10.007Z,7.00
2018-12-13T07:23:38.354Z,7.00
2018-12-13T07:26:08.525Z,7.20
2018-12-13T07:28:36.708Z,8.10
2018-12-13T07:31:04.968Z,7.77
2018-12-13T07:33:33.170Z,7.50
2018-12-13T07:36:01.434Z,7.10
2018-12-13T07:38:29.600Z,6.97
2018-12-13T07:40:57.819Z,7.53
2018-12-13T07:43:26.120Z,7.20
2018-12-13T07:45:54.349Z,7.80
2018-12-13T07:48:22.515Z,7.77
2018-12-13T07:50:50.857Z,7.27
2018-12-13T07:53:19.132Z,8.00
2018-12-13T07:55:48.000Z,8.30
2018-12-13T07:58:16.942Z,8.33
2018-12-13T08:00:45.092Z,8.00
2018-12-13T08:03:15.956Z,8.07
2018-12-13T08:05:44.104Z,8.33
2018-12-13T08:08:12.404Z,8.17
2018-12-13T08:10:40.620Z,8.10
2018-12-13T08:13:08.801Z,8.10
2018-12-13T08:15:36.963Z,8.53
2018-12-13T08:18:05.992Z,9.03
2018-12-13T08:20:34.131Z,7.50
2018-12-13T08:23:03.012Z,7.57
2018-12-13T08:25:31.183Z,8.03
2018-12-13T08:27:59.394Z,8.40
2018-12-13T08:30:27.639Z,7.73
2018-12-13T08:32:55.796Z,7.67
2018-12-13T08:35:24.066Z,8.23
2018-12-13T08:37:53.260Z,7.83
2018-12-13T08:40:22.034Z,8.00
2018-12-13T08:42:51.172Z,8.60
2018-12-13T08:45:19.383Z,8.77
2018-12-13T08:47:47.537Z,8.17
2018-12-13T08:50:16.649Z,8.13
2018-12-13T08:52:44.972Z,8.03
2018-12-13T08:55:13.152Z,8.53
2018-12-13T08:57:41.348Z,8.50
2018-12-13T09:00:09.826Z,7.63
2018-12-13T09:02:38.004Z,8.23
2018-12-13T09:05:06.700Z,8.20
2018-12-13T09:07:35.163Z,7.73
2018-12-13T09:10:05.092Z,7.60
2018-12-13T09:12:33.364Z,7.93
2018-12-13T09:15:01.600Z,7.67
2018-12-13T09:17:29.893Z,7.67
2018-12-13T09:19:58.029Z,7.90
2018-12-13T09:22:26.872Z,7.77
2018-12-13T09:24:55.044Z,7.63
2018-12-13T09:27:23.248Z,7.70
2018-12-13T09:29:51.431Z,8.10
2018-12-13T09:32:19.616Z,8.10
2018-12-13T09:34:47.861Z,7.63
2018-12-13T09:37:16.055Z,7.53
2018-12-13T09:39:44.425Z,7.60
2018-12-13T09:42:13.470Z,8.00
2018-12-13T09:44:43.105Z,8.23
2018-12-13T09:47:11.266Z,7.47
2018-12-13T09:49:41.535Z,7.03
2018-12-13T09:52:09.796Z,8.03
2018-12-13T09:54:37.977Z,8.20
2018-12-13T09:57:06.139Z,7.67
2018-12-13T09:59:35.204Z,7.63
2018-12-13T10:02:03.417Z,7.17
2018-12-13T10:04:31.675Z,7.67
2018-12-13T10:07:00.013Z,7.63
2018-12-13T10:09:28.618Z,8.33
2018-12-13T10:11:58.732Z,8.63
2018-12-13T10:14:27.010Z,8.40
2018-12-13T10:16:55.190Z,8.10
2018-12-13T10:19:23.377Z,7.97
2018-12-13T10:21:51.549Z,7.80
2018-12-13T10:24:19.735Z,8.17
2018-12-13T10:26:48.450Z,7.77
2018-12-13T10:29:16.778Z,8.83
2018-12-13T10:31:45.232Z,8.50
2018-12-13T10:34:13.436Z,7.50
2018-12-13T10:36:41.609Z,8.40
2018-12-13T10:39:09.861Z,7.43
2018-12-13T10:41:38.025Z,8.20
2018-12-13T10:44:07.137Z,8.03
2018-12-13T10:46:35.332Z,8.07
2018-12-13T10:49:03.757Z,7.93
2018-12-13T10:51:32.013Z,7.40
2018-12-13T10:54:00.647Z,7.80
2018-12-13T10:56:28.859Z,8.00
2018-12-13T10:58:57.085Z,8.33
2018-12-13T11:01:30.721Z,8.57
2018-12-13T11:03:59.269Z,7.93
2018-12-13T11:06:27.404Z,8.00
2018-12-13T11:08:59.374Z,8.10
2018-12-13T11:11:26.575Z,8.57
2018-12-13T11:13:54.752Z,8.50
2018-12-13T11:16:23.003Z,8.40
2018-12-13T11:18:51.464Z,8.20
2018-12-13T11:21:19.622Z,8.07
2018-12-13T11:23:50.012Z,8.17
2018-12-13T11:26:19.016Z,7.90
2018-12-13T11:29:56.099Z,9.23
2018-12-13T11:32:24.610Z,7.57
2018-12-13T11:34:52.846Z,8.80
2018-12-13T11:37:21.985Z,8.97
2018-12-13T11:39:52.876Z,8.47
2018-12-13T11:42:21.055Z,8.93
2018-12-13T11:44:49.228Z,8.67
2018-12-13T11:47:17.479Z,7.93
2018-12-13T11:49:47.722Z,8.47
2018-12-13T11:52:16.046Z,8.70
2018-12-13T11:54:44.504Z,8.33
2018-12-13T11:57:13.076Z,7.97
2018-12-13T11:59:41.260Z,8.00
2018-12-13T12:02:09.448Z,7.73
2018-12-13T12:04:38.537Z,8.73
2018-12-13T12:07:06.721Z,8.20
2018-12-13T12:09:34.947Z,8.30
2018-12-13T12:12:03.625Z,8.30
2018-12-13T12:14:32.684Z,12.87
2018-12-13T12:17:00.864Z,25.43
2018-12-13T12:19:29.129Z,10.70
2018-12-13T12:21:57.297Z,8.83
2018-12-13T12:24:25.524Z,8.80
2018-12-13T12:26:54.369Z,7.73
2018-12-13T12:29:24.575Z,8.07
2018-12-13T12:31:53.027Z,7.43
2018-12-13T12:34:21.382Z,7.70
2018-12-13T12:36:49.536Z,12.23
2018-12-13T12:39:18.696Z,11.33
2018-12-13T12:41:49.235Z,11.73
2018-12-13T12:44:17.417Z,14.73
2018-12-13T12:46:45.670Z,15.93
2018-12-13T12:49:13.891Z,10.17
2018-12-13T12:51:42.287Z,17.10
2018-12-13T12:54:10.407Z,9.20
2018-12-13T12:56:38.580Z,7.77
2018-12-13T12:59:06.792Z,8.83
2018-12-13T13:01:34.997Z,8.40
2018-12-13T13:04:03.243Z,7.67
2018-12-13T13:06:31.432Z,8.40
2018-12-13T13:09:00.229Z,7.90
2018-12-13T13:11:28.588Z,8.30
2018-12-13T13:13:56.837Z,9.40
2018-12-13T13:16:25.000Z,10.93
2018-12-13T13:18:53.184Z,8.23
2018-12-13T13:21:21.542Z,8.47
2018-12-13T13:23:49.859Z,8.20
2018-12-13T13:26:18.061Z,9.87
2018-12-13T13:28:46.249Z,6.80
2018-12-13T13:31:14.399Z,7.40
2018-12-13T13:33:42.551Z,8.30
2018-12-13T13:36:11.532Z,9.87
2018-12-13T13:38:39.717Z,13.87
2018-12-13T13:41:07.885Z,8.77
2018-12-13T13:43:36.092Z,9.17
2018-12-13T13:46:04.256Z,9.67
2018-12-13T13:48:32.428Z,7.60
2018-12-13T13:51:00.612Z,9.33
2018-12-13T13:53:28.880Z,11.20
2018-12-13T13:55:57.045Z,8.07
2018-12-13T13:58:25.191Z,7.70
2018-12-13T14:00:54.132Z,9.33
2018-12-13T14:03:22.275Z,8.67
2018-12-13T14:05:50.503Z,8.20
2018-12-13T14:08:18.659Z,7.73
2018-12-13T14:10:46.924Z,9.03
2018-12-13T14:13:15.090Z,24.10
2018-12-13T14:15:43.241Z,11.57
2018-12-13T14:18:11.406Z,9.50
2018-12-13T14:20:39.542Z,8.13
2018-12-13T14:23:07.968Z,11.43
2018-12-13T14:25:36.155Z,10.47
2018-12-13T14:28:04.467Z,8.77
2018-12-13T14:30:32.688Z,9.07
2018-12-13T14:33:00.975Z,8.00
2018-12-13T14:35:29.104Z,9.63
2018-12-13T14:37:57.258Z,14.50
2018-12-13T14:40:25.430Z,10.00
2018-12-13T14:42:53.676Z,8.43
2018-12-13T14:45:21.833Z,7.57
2018-12-13T14:47:50.492Z,7.77
2018-12-13T14:50:19.110Z,7.53
2018-12-13T14:52:47.236Z,8.20
2018-12-13T14:55:15.771Z,7.67
2018-12-13T14:57:43.917Z,8.43
2018-12-13T15:00:15.424Z,7.93
2018-12-13T15:02:43.706Z,8.07
2018-12-13T15:05:12.752Z,8.17
2018-12-13T15:07:42.746Z,8.00
2018-12-13T15:10:11.063Z,8.07
2018-12-13T15:12:39.236Z,8.13
2018-12-13T15:15:07.656Z,8.30
2018-12-13T15:17:36.407Z,8.10
2018-12-13T15:20:04.815Z,7.77
2018-12-13T15:22:33.001Z,8.20
2018-12-13T15:25:01.156Z,7.80
2018-12-13T15:27:29.377Z,8.20
2018-12-13T15:29:57.614Z,7.77
2018-12-13T15:32:25.777Z,7.70
2018-12-13T15:34:53.968Z,7.80
2018-12-13T15:37:22.181Z,7.37
2018-12-13T15:39:57.060Z,7.17
2018-12-13T15:42:21.664Z,7.57
2018-12-13T15:44:49.835Z,7.03
2018-12-13T15:47:19.175Z,7.07
2018-12-13T15:49:47.580Z,6.40
2018-12-13T15:52:15.864Z,7.03
2018-12-13T15:54:44.081Z,6.77
2018-12-13T15:57:12.277Z,7.00
2018-12-13T15:59:40.513Z,6.80
2018-12-13T16:02:08.788Z,19.90
2018-12-13T16:04:37.032Z,15.43
2018-12-13T16:07:05.284Z,10.60
2018-12-13T16:09:35.390Z,7.30
2018-12-13T16:12:04.262Z,7.17
2018-12-13T16:14:32.524Z,6.50
2018-12-13T16:17:00.710Z,7.03
2018-12-13T16:19:28.881Z,10.30
2018-12-13T16:21:57.041Z,16.03
2018-12-13T16:24:25.257Z,10.00
2018-12-13T16:26:53.520Z,12.37
2018-12-13T16:29:22.055Z,8.90
2018-12-13T16:31:51.251Z,9.00
2018-12-13T16:34:19.413Z,10.57
2018-12-13T16:36:47.586Z,8.67
2018-12-13T16:39:15.838Z,9.73
2018-12-13T16:41:44.027Z,23.90
2018-12-13T16:44:12.845Z,9.37
2018-12-13T16:46:41.011Z,50.07
2018-12-13T16:49:09.690Z,23.43
2018-12-13T16:51:37.865Z,12.70
2018-12-13T16:54:06.070Z,16.30
2018-12-13T16:56:34.230Z,47.17
2018-12-13T16:59:02.611Z,18.13
2018-12-13T17:01:30.821Z,17.10
2018-12-13T17:03:59.964Z,13.47
2018-12-13T17:06:28.220Z,16.03
2018-12-13T17:08:56.393Z,16.27
2018-12-13T17:11:24.660Z,20.77
2018-12-13T17:13:52.905Z,23.90
2018-12-13T17:16:21.669Z,17.27
2018-12-13T17:18:49.939Z,16.27
2018-12-13T17:21:19.005Z,19.10
2018-12-13T17:23:47.324Z,13.63
2018-12-13T17:26:15.530Z,18.07
2018-12-13T17:28:44.990Z,11.57
2018-12-13T17:31:13.205Z,9.77
2018-12-13T17:33:42.379Z,10.17
2018-12-13T17:36:10.565Z,11.73
2018-12-13T17:38:45.555Z,11.47
2018-12-13T17:41:14.446Z,10.70
2018-12-13T17:43:42.829Z,8.73
2018-12-13T17:46:11.090Z,9.87
2018-12-13T17:48:39.506Z,8.23
2018-12-13T17:51:07.972Z,9.80
2018-12-13T17:53:36.853Z,8.50
2018-12-13T17:56:07.117Z,8.70
2018-12-13T17:58:35.405Z,8.77
2018-12-13T18:01:04.274Z,11.07
2018-12-13T18:03:33.789Z,17.70
2018-12-13T18:06:02.460Z,9.57
2018-12-13T18:08:30.712Z,22.87
2018-12-13T18:10:58.916Z,25.37
2018-12-13T18:13:28.357Z,13.87
2018-12-13T18:15:56.582Z,20.67
2018-12-13T18:18:26.119Z,13.27
2018-12-13T18:20:54.480Z,14.73
2018-12-13T18:23:22.740Z,15.80
2018-12-13T18:25:51.848Z,13.30
2018-12-13T18:28:20.171Z,16.77
2018-12-13T18:30:48.358Z,15.57
2018-12-13T18:33:17.364Z,10.43
2018-12-13T18:35:45.665Z,11.87
2018-12-13T18:38:13.899Z,11.13
2018-12-13T18:40:42.178Z,11.87
2018-12-13T18:43:10.736Z,10.33
2018-12-13T18:45:39.096Z,10.50
2018-12-13T18:48:07.378Z,9.50
2018-12-13T18:50:35.636Z,10.23
2018-12-13T18:53:03.990Z,9.60
2018-12-13T18:55:32.340Z,9.37
2018-12-13T18:58:02.456Z,8.97
2018-12-13T19:00:31.003Z,9.63
2018-12-13T19:03:00.195Z,10.03
2018-12-13T19:05:28.528Z,10.37
2018-12-13T19:07:56.863Z,10.33
2018-12-13T19:10:25.276Z,10.40
2018-12-13T19:12:54.281Z,10.93
2018-12-13T19:15:23.617Z,10.07
2018-12-13T19:17:52.027Z,11.13
2018-12-13T19:20:20.452Z,10.60
2018-12-13T19:22:49.858Z,10.33
2018-12-13T19:25:20.991Z,10.63
2018-12-13T19:27:53.171Z,9.17
2018-12-13T19:30:22.683Z,9.77
2018-12-13T19:32:51.299Z,9.23
2018-12-13T19:35:20.099Z,9.50
2018-12-13T19:37:48.751Z,8.93
2018-12-13T19:40:17.625Z,9.27
2018-12-13T19:42:51.220Z,9.57
2018-12-13T19:45:21.907Z,8.83
2018-12-13T19:47:52.830Z,9.10
2018-12-13T19:50:21.573Z,8.70
2018-12-13T19:52:50.459Z,8.77
2018-12-13T19:55:19.904Z,9.30
2018-12-13T19:57:48.291Z,9.70
2018-12-13T20:00:17.140Z,8.90
2018-12-13T20:02:49.107Z,9.43
2018-12-13T20:05:18.472Z,8.87
2018-12-13T20:07:46.774Z,8.73
2018-12-13T20:10:15.107Z,9.00
2018-12-13T20:12:43.337Z,8.57
2018-12-13T20:15:12.752Z,9.43
2018-12-13T20:17:41.244Z,9.20
2018-12-13T20:20:09.666Z,9.50
2018-12-13T20:22:37.866Z,8.83
2018-12-13T20:25:07.599Z,8.97
2018-12-13T20:27:35.921Z,8.90
2018-12-13T20:30:06.506Z,9.33
2018-12-13T20:32:34.866Z,9.43
2018-12-13T20:35:04.636Z,10.37
2018-12-13T20:37:33.034Z,9.17
2018-12-13T20:40:01.467Z,9.57
2018-12-13T20:42:29.678Z,9.50
2018-12-13T20:44:57.843Z,10.33
2018-12-13T20:47:26.072Z,10.07
2018-12-13T20:49:54.252Z,10.23
2018-12-13T20:52:22.519Z,10.03
2018-12-13T20:54:51.697Z,9.27
2018-12-13T20:57:20.010Z,9.63
2018-12-13T20:59:48.350Z,9.87
2018-12-13T21:02:16.545Z,9.23
2018-12-13T21:04:44.802Z,9.43
2018-12-13T21:07:18.445Z,9.67
2018-12-13T21:09:46.701Z,7.93
2018-12-13T21:12:15.988Z,8.47
2018-12-13T21:14:44.250Z,8.17
2018-12-13T21:17:12.544Z,7.67
2018-12-13T21:19:40.769Z,8.07
2018-12-13T21:22:08.954Z,7.53
2018-12-13T21:24:37.252Z,7.50
2018-12-13T21:27:05.718Z,7.70
2018-12-13T21:29:33.939Z,7.80
2018-12-13T21:32:03.237Z,7.43
2018-12-13T21:34:31.510Z,7.33
2018-12-13T21:36:59.711Z,7.90
2018-12-13T21:39:27.937Z,7.80
2018-12-13T21:41:56.200Z,7.50
2018-12-13T21:44:24.465Z,8.20
2018-12-13T21:46:52.671Z,7.73
2018-12-13T21:49:21.843Z,7.87
2018-12-13T21:51:50.203Z,6.83
2018-12-13T21:54:18.499Z,7.73
2018-12-13T21:56:47.017Z,7.97
2018-12-13T21:59:15.316Z,8.30
2018-12-13T22:01:43.553Z,8.80
2018-12-13T22:04:13.637Z,8.70
2018-12-13T22:06:42.060Z,8.17
2018-12-13T22:09:10.252Z,8.23
2018-12-13T22:11:38.416Z,7.87
2018-12-13T22:14:07.637Z,8.17
2018-12-13T22:16:35.828Z,8.53
2018-12-13T22:19:04.090Z,8.47
2018-12-13T22:21:32.259Z,7.73
2018-12-13T22:24:00.441Z,8.03
2018-12-13T22:26:28.687Z,8.20
2018-12-13T22:28:56.868Z,8.00
2018-12-13T22:31:25.041Z,8.43
2018-12-13T22:33:53.279Z,7.70
2018-12-13T22:36:21.519Z,7.67
2018-12-13T22:38:49.690Z,7.40
2018-12-13T22:41:18.852Z,7.53
2018-12-13T22:43:47.040Z,6.90
2018-12-13T22:46:15.227Z,7.03
2018-12-13T22:48:43.409Z,7.67
2018-12-13T22:51:11.662Z,7.83
2018-12-13T22:53:39.983Z,7.93
2018-12-13T22:56:08.718Z,7.90
2018-12-13T22:58:36.872Z,7.27
2018-12-13T23:01:06.023Z,7.57
2018-12-13T23:03:34.295Z,7.10
2018-12-13T23:06:02.477Z,7.17
2018-12-13T23:08:30.655Z,7.80
2018-12-13T23:10:59.960Z,8.27
2018-12-13T23:13:28.160Z,7.63
2018-12-13T23:15:56.812Z,7.60
2018-12-13T23:18:24.986Z,8.10
2018-12-13T23:20:53.163Z,7.60
2018-12-13T23:23:21.551Z,7.50
2018-12-13T23:25:49.728Z,7.17
2018-12-13T23:28:17.901Z,7.77
2018-12-13T23:30:46.077Z,7.03
2018-12-13T23:33:15.143Z,7.03
2018-12-13T23:35:43.357Z,7.37
2018-12-13T23:38:11.703Z,7.40
2018-12-13T23:40:40.755Z,7.83
2018-12-13T23:43:08.935Z,6.67
2018-12-13T23:45:38.704Z,7.70
2018-12-13T23:48:06.924Z,7.33
2018-12-13T23:50:35.252Z,8.33
2018-12-13T23:53:03.454Z,7.80
2018-12-13T23:55:31.700Z,7.63
2018-12-13T23:57:59.900Z,8.43
